sensor_id;sensor_type;location;lat;lon;timestamp;temperature;humidity
12971;DHT22;6550;48.650;8.774;2023-09-19T00:00:48;18.60;99.90
12971;DHT22;6550;48.650;8.774;2023-09-19T00:03:18;18.00;99.90
12971;DHT22;6550;48.650;8.774;2023-09-19T00:05:48;18.50;99.90
12971;DHT22;6550;48.650;8.774;2023-09-19T00:08:16;17.90;99.90
12971;DHT22;6550;48.650;8.774;2023-09-19T00:10:44;17.90;99.90
12971;DHT22;6550;48.650;8.774;2023-09-19T00:13:13;17.90;99.90
12971;DHT22;6550;48.650;8.774;2023-09-19T00:15:46;17.90;99.90
12971;DHT22;6550;48.650;8.774;2023-09-19T00:18:22;17.90;99.90
12971;DHT22;6550;48.650;8.774;2023-09-19T00:20:51;17.80;99.90
12971;DHT22;6550;48.650;8.774;2023-09-19T00:23:19;17.80;99.90
12971;DHT22;6550;48.650;8.774;2023-09-19T00:25:47;17.70;99.90
12971;DHT22;6550;48.650;8.774;2023-09-19T00:28:16;18.00;99.90
12971;DHT22;6550;48.650;8.774;2023-09-19T00:30:49;17.90;99.90
12971;DHT22;6550;48.650;8.774;2023-09-19T00:33:22;17.80;99.90
12971;DHT22;6550;48.650;8.774;2023-09-19T00:35:50;17.80;99.90
12971;DHT22;6550;48.650;8.774;2023-09-19T00:38:17;18.40;99.90
12971;DHT22;6550;48.650;8.774;2023-09-19T00:40:48;17.80;99.90
12971;DHT22;6550;48.650;8.774;2023-09-19T00:43:15;17.80;99.90
12971;DHT22;6550;48.650;8.774;2023-09-19T00:45:44;17.70;99.90
12971;DHT22;6550;48.650;8.774;2023-09-19T00:48:12;18.00;99.90
12971;DHT22;6550;48.650;8.774;2023-09-19T00:50:41;17.90;99.90
12971;DHT22;6550;48.650;8.774;2023-09-19T00:53:09;17.80;99.90
12971;DHT22;6550;48.650;8.774;2023-09-19T00:55:40;18.30;99.90
12971;DHT22;6550;48.650;8.774;2023-09-19T00:58:10;17.90;99.90
12971;DHT22;6550;48.650;8.774;2023-09-19T01:00:40;17.80;99.90
12971;DHT22;6550;48.650;8.774;2023-09-19T01:03:11;17.90;99.90
12971;DHT22;6550;48.650;8.774;2023-09-19T01:05:42;18.20;99.90
12971;DHT22;6550;48.650;8.774;2023-09-19T01:16:44;17.80;99.90
12971;DHT22;6550;48.650;8.774;2023-09-19T01:25:19;17.70;99.90
12971;DHT22;6550;48.650;8.774;2023-09-19T01:30:35;17.70;99.90
12971;DHT22;6550;48.650;8.774;2023-09-19T01:33:06;17.90;99.90
12971;DHT22;6550;48.650;8.774;2023-09-19T01:35:34;17.60;99.90
12971;DHT22;6550;48.650;8.774;2023-09-19T01:38:06;17.60;99.90
12971;DHT22;6550;48.650;8.774;2023-09-19T01:40:57;17.60;99.90
12971;DHT22;6550;48.650;8.774;2023-09-19T01:43:42;17.70;99.90
12971;DHT22;6550;48.650;8.774;2023-09-19T01:46:16;17.60;99.90
12971;DHT22;6550;48.650;8.774;2023-09-19T01:51:26;17.50;99.90
12971;DHT22;6550;48.650;8.774;2023-09-19T01:54:01;17.50;99.90
12971;DHT22;6550;48.650;8.774;2023-09-19T01:56:40;17.50;99.90
12971;DHT22;6550;48.650;8.774;2023-09-19T01:59:13;17.50;99.90
12971;DHT22;6550;48.650;8.774;2023-09-19T02:01:41;17.40;99.90
12971;DHT22;6550;48.650;8.774;2023-09-19T02:04:13;17.40;99.90
12971;DHT22;6550;48.650;8.774;2023-09-19T02:06:41;17.30;99.90
12971;DHT22;6550;48.650;8.774;2023-09-19T02:09:08;17.50;99.90
12971;DHT22;6550;48.650;8.774;2023-09-19T02:11:37;17.20;99.90
12971;DHT22;6550;48.650;8.774;2023-09-19T02:14:05;17.20;99.90
12971;DHT22;6550;48.650;8.774;2023-09-19T02:16:37;16.90;99.90
12971;DHT22;6550;48.650;8.774;2023-09-19T02:19:05;17.30;99.90
12971;DHT22;6550;48.650;8.774;2023-09-19T02:21:32;17.10;99.90
12971;DHT22;6550;48.650;8.774;2023-09-19T02:24:02;17.10;99.90
12971;DHT22;6550;48.650;8.774;2023-09-19T02:26:29;17.10;99.90
12971;DHT22;6550;48.650;8.774;2023-09-19T02:28:58;17.00;99.90
12971;DHT22;6550;48.650;8.774;2023-09-19T02:31:26;16.60;99.90
12971;DHT22;6550;48.650;8.774;2023-09-19T02:33:57;17.10;99.90
12971;DHT22;6550;48.650;8.774;2023-09-19T02:36:27;17.00;99.90
12971;DHT22;6550;48.650;8.774;2023-09-19T02:38:53;17.00;99.90
12971;DHT22;6550;48.650;8.774;2023-09-19T02:41:22;17.00;99.90
12971;DHT22;6550;48.650;8.774;2023-09-19T02:43:49;17.10;99.90
12971;DHT22;6550;48.650;8.774;2023-09-19T02:46:18;17.10;99.90
12971;DHT22;6550;48.650;8.774;2023-09-19T02:48:48;17.10;99.90
12971;DHT22;6550;48.650;8.774;2023-09-19T02:51:17;17.10;99.90
12971;DHT22;6550;48.650;8.774;2023-09-19T02:53:47;17.10;99.90
12971;DHT22;6550;48.650;8.774;2023-09-19T02:56:14;17.20;99.90
12971;DHT22;6550;48.650;8.774;2023-09-19T02:58:42;17.10;99.90
12971;DHT22;6550;48.650;8.774;2023-09-19T03:01:12;17.10;99.90
12971;DHT22;6550;48.650;8.774;2023-09-19T03:03:41;17.10;99.90
12971;DHT22;6550;48.650;8.774;2023-09-19T03:06:08;17.10;99.90
12971;DHT22;6550;48.650;8.774;2023-09-19T03:08:36;17.10;99.90
12971;DHT22;6550;48.650;8.774;2023-09-19T03:11:04;17.10;99.90
12971;DHT22;6550;48.650;8.774;2023-09-19T03:13:34;17.30;99.90
12971;DHT22;6550;48.650;8.774;2023-09-19T03:16:05;17.10;99.90
12971;DHT22;6550;48.650;8.774;2023-09-19T03:18:37;17.10;99.90
12971;DHT22;6550;48.650;8.774;2023-09-19T03:21:04;17.20;99.90
12971;DHT22;6550;48.650;8.774;2023-09-19T03:23:31;17.00;99.90
12971;DHT22;6550;48.650;8.774;2023-09-19T03:26:00;17.10;99.90
12971;DHT22;6550;48.650;8.774;2023-09-19T03:28:27;17.10;99.90
12971;DHT22;6550;48.650;8.774;2023-09-19T03:31:12;17.10;99.90
12971;DHT22;6550;48.650;8.774;2023-09-19T03:33:44;17.10;99.90
12971;DHT22;6550;48.650;8.774;2023-09-19T03:36:11;17.20;99.90
12971;DHT22;6550;48.650;8.774;2023-09-19T03:38:39;17.20;99.90
12971;DHT22;6550;48.650;8.774;2023-09-19T03:41:06;17.20;99.90
12971;DHT22;6550;48.650;8.774;2023-09-19T03:43:33;17.20;99.90
12971;DHT22;6550;48.650;8.774;2023-09-19T03:46:02;17.20;99.90
12971;DHT22;6550;48.650;8.774;2023-09-19T03:48:32;17.60;99.90
12971;DHT22;6550;48.650;8.774;2023-09-19T03:51:00;17.20;99.90
12971;DHT22;6550;48.650;8.774;2023-09-19T03:53:29;17.20;99.90
12971;DHT22;6550;48.650;8.774;2023-09-19T03:55:56;17.20;99.90
12971;DHT22;6550;48.650;8.774;2023-09-19T03:58:23;17.20;99.90
12971;DHT22;6550;48.650;8.774;2023-09-19T04:00:55;17.30;99.90
12971;DHT22;6550;48.650;8.774;2023-09-19T04:03:22;17.20;99.90
12971;DHT22;6550;48.650;8.774;2023-09-19T04:05:51;17.20;99.90
12971;DHT22;6550;48.650;8.774;2023-09-19T04:08:20;18.70;99.90
12971;DHT22;6550;48.650;8.774;2023-09-19T04:10:48;17.20;99.90
12971;DHT22;6550;48.650;8.774;2023-09-19T04:13:17;17.20;99.90
12971;DHT22;6550;48.650;8.774;2023-09-19T04:15:44;17.20;99.90
12971;DHT22;6550;48.650;8.774;2023-09-19T04:18:12;17.20;99.90
12971;DHT22;6550;48.650;8.774;2023-09-19T04:20:47;17.30;99.90
12971;DHT22;6550;48.650;8.774;2023-09-19T04:23:13;17.20;99.90
12971;DHT22;6550;48.650;8.774;2023-09-19T04:25:43;17.20;99.90
12971;DHT22;6550;48.650;8.774;2023-09-19T04:28:09;17.30;99.90
12971;DHT22;6550;48.650;8.774;2023-09-19T04:30:39;17.30;99.90
12971;DHT22;6550;48.650;8.774;2023-09-19T04:33:08;17.40;99.90
12971;DHT22;6550;48.650;8.774;2023-09-19T04:35:35;17.50;99.90
12971;DHT22;6550;48.650;8.774;2023-09-19T04:38:05;17.30;99.90
12971;DHT22;6550;48.650;8.774;2023-09-19T04:40:36;17.20;99.90
12971;DHT22;6550;48.650;8.774;2023-09-19T04:43:07;17.80;99.90
12971;DHT22;6550;48.650;8.774;2023-09-19T04:45:34;17.10;99.90
12971;DHT22;6550;48.650;8.774;2023-09-19T04:48:03;17.10;99.90
12971;DHT22;6550;48.650;8.774;2023-09-19T04:50:30;17.10;99.90
12971;DHT22;6550;48.650;8.774;2023-09-19T04:52:57;17.10;99.90
12971;DHT22;6550;48.650;8.774;2023-09-19T04:55:29;17.10;99.90
12971;DHT22;6550;48.650;8.774;2023-09-19T04:57:59;17.40;99.90
12971;DHT22;6550;48.650;8.774;2023-09-19T05:00:26;17.10;99.90
12971;DHT22;6550;48.650;8.774;2023-09-19T05:02:57;17.60;99.90
12971;DHT22;6550;48.650;8.774;2023-09-19T05:05:24;17.30;99.90
12971;DHT22;6550;48.650;8.774;2023-09-19T05:07:53;17.20;99.90
12971;DHT22;6550;48.650;8.774;2023-09-19T05:10:21;17.20;99.90
12971;DHT22;6550;48.650;8.774;2023-09-19T05:12:48;17.30;99.90
12971;DHT22;6550;48.650;8.774;2023-09-19T05:15:18;17.10;99.90
12971;DHT22;6550;48.650;8.774;2023-09-19T05:17:53;17.30;99.90
12971;DHT22;6550;48.650;8.774;2023-09-19T05:23:03;17.40;99.90
12971;DHT22;6550;48.650;8.774;2023-09-19T05:25:36;17.40;99.90
12971;DHT22;6550;48.650;8.774;2023-09-19T05:28:07;17.40;99.90
12971;DHT22;6550;48.650;8.774;2023-09-19T05:30:34;17.40;99.90
12971;DHT22;6550;48.650;8.774;2023-09-19T05:33:12;17.90;99.90
12971;DHT22;6550;48.650;8.774;2023-09-19T05:35:39;17.60;99.90
12971;DHT22;6550;48.650;8.774;2023-09-19T05:38:08;17.40;99.90
12971;DHT22;6550;48.650;8.774;2023-09-19T05:40:35;17.40;99.90
12971;DHT22;6550;48.650;8.774;2023-09-19T05:43:02;17.40;99.90
12971;DHT22;6550;48.650;8.774;2023-09-19T05:45:32;17.40;99.90
12971;DHT22;6550;48.650;8.774;2023-09-19T05:48:10;17.40;99.90
12971;DHT22;6550;48.650;8.774;2023-09-19T05:50:40;17.40;99.90
12971;DHT22;6550;48.650;8.774;2023-09-19T05:53:08;17.30;99.90
12971;DHT22;6550;48.650;8.774;2023-09-19T05:55:41;17.20;99.90
12971;DHT22;6550;48.650;8.774;2023-09-19T05:58:08;17.00;99.90
12971;DHT22;6550;48.650;8.774;2023-09-19T06:00:36;17.30;99.90
12971;DHT22;6550;48.650;8.774;2023-09-19T06:03:08;17.20;99.90
12971;DHT22;6550;48.650;8.774;2023-09-19T06:05:38;17.30;99.90
12971;DHT22;6550;48.650;8.774;2023-09-19T06:08:06;17.30;99.90
12971;DHT22;6550;48.650;8.774;2023-09-19T06:10:37;17.30;99.90
12971;DHT22;6550;48.650;8.774;2023-09-19T06:13:04;17.80;99.90
12971;DHT22;6550;48.650;8.774;2023-09-19T06:15:32;17.30;99.90
12971;DHT22;6550;48.650;8.774;2023-09-19T06:18:02;17.50;99.90
12971;DHT22;6550;48.650;8.774;2023-09-19T06:20:35;17.50;99.90
12971;DHT22;6550;48.650;8.774;2023-09-19T06:23:02;17.50;99.90
12971;DHT22;6550;48.650;8.774;2023-09-19T06:25:31;17.60;99.90
12971;DHT22;6550;48.650;8.774;2023-09-19T06:27:58;17.60;99.90
12971;DHT22;6550;48.650;8.774;2023-09-19T06:30:25;17.60;99.90
12971;DHT22;6550;48.650;8.774;2023-09-19T06:32:57;17.60;99.90
12971;DHT22;6550;48.650;8.774;2023-09-19T06:35:25;17.70;99.90
12971;DHT22;6550;48.650;8.774;2023-09-19T06:40:20;17.80;99.90
12971;DHT22;6550;48.650;8.774;2023-09-19T06:42:51;17.80;99.90
12971;DHT22;6550;48.650;8.774;2023-09-19T06:45:20;17.80;99.90
12971;DHT22;6550;48.650;8.774;2023-09-19T06:47:51;17.90;99.90
12971;DHT22;6550;48.650;8.774;2023-09-19T06:50:20;17.90;99.90
12971;DHT22;6550;48.650;8.774;2023-09-19T06:52:55;18.00;99.90
12971;DHT22;6550;48.650;8.774;2023-09-19T06:55:26;18.10;99.90
12971;DHT22;6550;48.650;8.774;2023-09-19T06:58:01;18.10;99.90
12971;DHT22;6550;48.650;8.774;2023-09-19T07:00:30;18.10;99.90
12971;DHT22;6550;48.650;8.774;2023-09-19T07:03:06;18.10;99.90
12971;DHT22;6550;48.650;8.774;2023-09-19T07:05:40;18.20;99.90
12971;DHT22;6550;48.650;8.774;2023-09-19T07:08:12;18.50;99.90
12971;DHT22;6550;48.650;8.774;2023-09-19T07:10:41;18.30;99.90
12971;DHT22;6550;48.650;8.774;2023-09-19T07:13:17;18.30;99.90
12971;DHT22;6550;48.650;8.774;2023-09-19T07:15:45;18.30;99.90
12971;DHT22;6550;48.650;8.774;2023-09-19T07:18:17;18.20;99.90
12971;DHT22;6550;48.650;8.774;2023-09-19T07:20:45;18.40;99.90
12971;DHT22;6550;48.650;8.774;2023-09-19T07:23:21;18.40;99.90
12971;DHT22;6550;48.650;8.774;2023-09-19T07:25:56;18.40;99.90
12971;DHT22;6550;48.650;8.774;2023-09-19T07:28:23;18.50;99.90
12971;DHT22;6550;48.650;8.774;2023-09-19T07:30:55;18.60;99.90
12971;DHT22;6550;48.650;8.774;2023-09-19T07:33:21;18.50;99.90
12971;DHT22;6550;48.650;8.774;2023-09-19T07:35:53;19.10;99.90
12971;DHT22;6550;48.650;8.774;2023-09-19T07:40:48;18.80;99.90
12971;DHT22;6550;48.650;8.774;2023-09-19T07:43:17;19.00;99.90
12971;DHT22;6550;48.650;8.774;2023-09-19T07:45:46;19.40;99.90
12971;DHT22;6550;48.650;8.774;2023-09-19T07:48:14;19.50;99.90
12971;DHT22;6550;48.650;8.774;2023-09-19T07:50:46;19.70;99.90
12971;DHT22;6550;48.650;8.774;2023-09-19T07:53:13;20.10;99.90
12971;DHT22;6550;48.650;8.774;2023-09-19T07:55:42;20.30;99.90
12971;DHT22;6550;48.650;8.774;2023-09-19T07:58:15;20.70;99.90
12971;DHT22;6550;48.650;8.774;2023-09-19T08:00:45;20.60;99.90
12971;DHT22;6550;48.650;8.774;2023-09-19T08:03:12;20.70;99.90
12971;DHT22;6550;48.650;8.774;2023-09-19T08:05:46;20.80;99.90
12971;DHT22;6550;48.650;8.774;2023-09-19T08:08:14;21.10;99.90
12971;DHT22;6550;48.650;8.774;2023-09-19T08:10:42;21.30;99.90
12971;DHT22;6550;48.650;8.774;2023-09-19T08:13:12;21.30;99.90
12971;DHT22;6550;48.650;8.774;2023-09-19T08:15:44;21.20;99.90
12971;DHT22;6550;48.650;8.774;2023-09-19T08:18:15;21.10;99.90
12971;DHT22;6550;48.650;8.774;2023-09-19T08:20:48;21.00;99.90
12971;DHT22;6550;48.650;8.774;2023-09-19T08:23:17;21.10;99.90
12971;DHT22;6550;48.650;8.774;2023-09-19T08:25:47;21.00;99.90
12971;DHT22;6550;48.650;8.774;2023-09-19T08:28:14;21.30;99.90
12971;DHT22;6550;48.650;8.774;2023-09-19T08:30:46;21.00;99.90
12971;DHT22;6550;48.650;8.774;2023-09-19T08:33:13;21.30;99.90
12971;DHT22;6550;48.650;8.774;2023-09-19T08:38:12;21.30;99.90
12971;DHT22;6550;48.650;8.774;2023-09-19T08:40:42;21.50;99.90
12971;DHT22;6550;48.650;8.774;2023-09-19T08:43:10;21.70;99.90
12971;DHT22;6550;48.650;8.774;2023-09-19T08:45:39;21.70;99.90
12971;DHT22;6550;48.650;8.774;2023-09-19T08:48:23;21.70;99.90
12971;DHT22;6550;48.650;8.774;2023-09-19T08:50:56;21.90;99.90
12971;DHT22;6550;48.650;8.774;2023-09-19T08:53:51;21.90;99.90
12971;DHT22;6550;48.650;8.774;2023-09-19T08:56:22;22.10;99.90
12971;DHT22;6550;48.650;8.774;2023-09-19T08:58:55;22.20;99.90
12971;DHT22;6550;48.650;8.774;2023-09-19T09:01:23;22.20;99.90
12971;DHT22;6550;48.650;8.774;2023-09-19T09:03:56;22.20;99.90
12971;DHT22;6550;48.650;8.774;2023-09-19T09:06:24;22.30;99.90
12971;DHT22;6550;48.650;8.774;2023-09-19T09:08:52;22.20;99.90
12971;DHT22;6550;48.650;8.774;2023-09-19T09:11:21;21.80;99.90
12971;DHT22;6550;48.650;8.774;2023-09-19T09:13:51;21.70;99.90
12971;DHT22;6550;48.650;8.774;2023-09-19T09:16:18;21.30;99.90
12971;DHT22;6550;48.650;8.774;2023-09-19T09:18:46;21.40;99.90
12971;DHT22;6550;48.650;8.774;2023-09-19T09:21:27;21.70;99.90
12971;DHT22;6550;48.650;8.774;2023-09-19T09:23:54;22.00;99.90
12971;DHT22;6550;48.650;8.774;2023-09-19T09:26:41;22.30;99.90
12971;DHT22;6550;48.650;8.774;2023-09-19T09:29:11;22.40;99.90
12971;DHT22;6550;48.650;8.774;2023-09-19T09:31:49;22.50;99.90
12971;DHT22;6550;48.650;8.774;2023-09-19T09:34:16;22.60;99.90
12971;DHT22;6550;48.650;8.774;2023-09-19T09:36:50;22.80;99.90
12971;DHT22;6550;48.650;8.774;2023-09-19T09:39:34;22.80;99.90
12971;DHT22;6550;48.650;8.774;2023-09-19T09:42:01;23.00;99.90
12971;DHT22;6550;48.650;8.774;2023-09-19T09:44:35;23.10;99.90
12971;DHT22;6550;48.650;8.774;2023-09-19T09:47:02;23.10;99.90
12971;DHT22;6550;48.650;8.774;2023-09-19T09:49:50;23.20;99.90
12971;DHT22;6550;48.650;8.774;2023-09-19T09:52:21;23.30;99.90
12971;DHT22;6550;48.650;8.774;2023-09-19T09:55:02;23.30;99.90
12971;DHT22;6550;48.650;8.774;2023-09-19T09:57:36;23.30;99.90
12971;DHT22;6550;48.650;8.774;2023-09-19T10:00:12;23.40;99.90
12971;DHT22;6550;48.650;8.774;2023-09-19T10:02:39;23.40;99.90
12971;DHT22;6550;48.650;8.774;2023-09-19T10:05:12;23.30;99.90
12971;DHT22;6550;48.650;8.774;2023-09-19T10:07:55;23.10;99.90
12971;DHT22;6550;48.650;8.774;2023-09-19T10:10:40;23.00;99.90
12971;DHT22;6550;48.650;8.774;2023-09-19T10:13:08;22.80;99.90
12971;DHT22;6550;48.650;8.774;2023-09-19T10:15:42;22.80;99.90
12971;DHT22;6550;48.650;8.774;2023-09-19T10:18:20;22.70;99.90
12971;DHT22;6550;48.650;8.774;2023-09-19T10:20:47;22.60;99.90
12971;DHT22;6550;48.650;8.774;2023-09-19T10:23:18;22.70;99.90
12971;DHT22;6550;48.650;8.774;2023-09-19T10:25:53;22.80;99.90
12971;DHT22;6550;48.650;8.774;2023-09-19T10:28:26;23.10;99.90
12971;DHT22;6550;48.650;8.774;2023-09-19T10:30:55;23.10;99.90
12971;DHT22;6550;48.650;8.774;2023-09-19T10:33:24;23.40;99.90
12971;DHT22;6550;48.650;8.774;2023-09-19T10:35:59;23.30;99.90
12971;DHT22;6550;48.650;8.774;2023-09-19T10:38:27;23.20;99.90
12971;DHT22;6550;48.650;8.774;2023-09-19T10:40:57;23.20;99.90
12971;DHT22;6550;48.650;8.774;2023-09-19T10:43:32;22.90;99.90
12971;DHT22;6550;48.650;8.774;2023-09-19T10:46:06;23.00;99.90
12971;DHT22;6550;48.650;8.774;2023-09-19T10:48:34;23.00;99.90
12971;DHT22;6550;48.650;8.774;2023-09-19T10:56:23;23.20;98.80
12971;DHT22;6550;48.650;8.774;2023-09-19T11:01:46;23.10;98.40
12971;DHT22;6550;48.650;8.774;2023-09-19T11:04:31;23.40;98.50
12971;DHT22;6550;48.650;8.774;2023-09-19T11:09:52;23.40;98.00
12971;DHT22;6550;48.650;8.774;2023-09-19T11:26:44;23.40;95.10
12971;DHT22;6550;48.650;8.774;2023-09-19T11:29:32;23.30;94.80
12971;DHT22;6550;48.650;8.774;2023-09-19T11:32:02;23.40;96.40
12971;DHT22;6550;48.650;8.774;2023-09-19T11:39:38;23.60;97.40
12971;DHT22;6550;48.650;8.774;2023-09-19T11:48:18;23.70;94.60
12971;DHT22;6550;48.650;8.774;2023-09-19T11:50:47;23.60;96.70
12971;DHT22;6550;48.650;8.774;2023-09-19T11:53:14;23.70;96.10
12971;DHT22;6550;48.650;8.774;2023-09-19T11:55:43;23.90;95.50
12971;DHT22;6550;48.650;8.774;2023-09-19T11:58:10;24.00;96.20
12971;DHT22;6550;48.650;8.774;2023-09-19T12:00:42;24.10;94.60
12971;DHT22;6550;48.650;8.774;2023-09-19T12:03:11;24.10;95.50
12971;DHT22;6550;48.650;8.774;2023-09-19T12:05:39;24.20;96.00
12971;DHT22;6550;48.650;8.774;2023-09-19T12:08:07;24.10;96.20
12971;DHT22;6550;48.650;8.774;2023-09-19T12:10:50;24.20;94.60
12971;DHT22;6550;48.650;8.774;2023-09-19T12:13:24;24.30;95.20
12971;DHT22;6550;48.650;8.774;2023-09-19T12:15:53;24.40;95.50
12971;DHT22;6550;48.650;8.774;2023-09-19T12:20:54;24.70;95.00
12971;DHT22;6550;48.650;8.774;2023-09-19T12:23:24;24.60;94.80
12971;DHT22;6550;48.650;8.774;2023-09-19T12:25:55;24.60;95.10
12971;DHT22;6550;48.650;8.774;2023-09-19T12:28:26;24.40;94.70
12971;DHT22;6550;48.650;8.774;2023-09-19T12:30:54;24.30;95.00
12971;DHT22;6550;48.650;8.774;2023-09-19T12:33:23;24.40;95.00
12971;DHT22;6550;48.650;8.774;2023-09-19T12:35:52;24.70;94.10
12971;DHT22;6550;48.650;8.774;2023-09-19T12:38:25;24.60;93.50
12971;DHT22;6550;48.650;8.774;2023-09-19T12:41:01;24.70;93.10
12971;DHT22;6550;48.650;8.774;2023-09-19T12:43:29;24.70;93.20
12971;DHT22;6550;48.650;8.774;2023-09-19T12:45:59;24.80;93.30
12971;DHT22;6550;48.650;8.774;2023-09-19T12:48:26;24.70;93.30
12971;DHT22;6550;48.650;8.774;2023-09-19T12:51:08;24.80;93.70
12971;DHT22;6550;48.650;8.774;2023-09-19T12:53:40;24.70;93.90
12971;DHT22;6550;48.650;8.774;2023-09-19T12:56:13;24.70;94.10
12971;DHT22;6550;48.650;8.774;2023-09-19T12:58:54;24.60;93.90
12971;DHT22;6550;48.650;8.774;2023-09-19T13:01:23;24.60;93.00
12971;DHT22;6550;48.650;8.774;2023-09-19T13:09:14;24.50;92.70
12971;DHT22;6550;48.650;8.774;2023-09-19T13:11:42;24.40;92.70
12971;DHT22;6550;48.650;8.774;2023-09-19T13:19:45;24.20;91.80
12971;DHT22;6550;48.650;8.774;2023-09-19T13:22:42;24.10;92.40
12971;DHT22;6550;48.650;8.774;2023-09-19T13:25:15;24.00;92.00
12971;DHT22;6550;48.650;8.774;2023-09-19T13:27:56;24.00;91.90
12971;DHT22;6550;48.650;8.774;2023-09-19T13:30:25;23.90;92.80
12971;DHT22;6550;48.650;8.774;2023-09-19T13:33:05;23.90;93.40
12971;DHT22;6550;48.650;8.774;2023-09-19T13:35:33;23.90;93.00
12971;DHT22;6550;48.650;8.774;2023-09-19T13:38:03;23.90;93.30
12971;DHT22;6550;48.650;8.774;2023-09-19T13:40:32;23.90;92.80
12971;DHT22;6550;48.650;8.774;2023-09-19T13:43:01;23.90;90.70
12971;DHT22;6550;48.650;8.774;2023-09-19T13:45:30;23.80;91.50
12971;DHT22;6550;48.650;8.774;2023-09-19T13:47:59;23.90;91.50
12971;DHT22;6550;48.650;8.774;2023-09-19T13:50:26;23.90;90.90
12971;DHT22;6550;48.650;8.774;2023-09-19T13:52:55;23.90;91.30
12971;DHT22;6550;48.650;8.774;2023-09-19T13:55:22;23.90;90.40
12971;DHT22;6550;48.650;8.774;2023-09-19T13:57:51;23.80;91.50
12971;DHT22;6550;48.650;8.774;2023-09-19T14:00:22;23.90;91.70
12971;DHT22;6550;48.650;8.774;2023-09-19T14:02:49;23.90;92.00
12971;DHT22;6550;48.650;8.774;2023-09-19T14:05:18;24.00;90.80
12971;DHT22;6550;48.650;8.774;2023-09-19T14:07:45;23.90;91.50
12971;DHT22;6550;48.650;8.774;2023-09-19T14:10:13;23.90;91.30
12971;DHT22;6550;48.650;8.774;2023-09-19T14:15:11;23.90;90.80
12971;DHT22;6550;48.650;8.774;2023-09-19T14:17:40;24.00;91.40
12971;DHT22;6550;48.650;8.774;2023-09-19T14:20:09;23.90;92.00
12971;DHT22;6550;48.650;8.774;2023-09-19T14:22:37;24.00;91.20
12971;DHT22;6550;48.650;8.774;2023-09-19T14:25:05;24.00;92.00
12971;DHT22;6550;48.650;8.774;2023-09-19T14:27:34;24.10;91.80
12971;DHT22;6550;48.650;8.774;2023-09-19T14:30:03;24.10;92.20
12971;DHT22;6550;48.650;8.774;2023-09-19T14:32:35;24.10;91.90
12971;DHT22;6550;48.650;8.774;2023-09-19T14:35:05;24.00;92.10
12971;DHT22;6550;48.650;8.774;2023-09-19T14:37:32;24.10;91.50
12971;DHT22;6550;48.650;8.774;2023-09-19T14:42:26;24.10;91.30
12971;DHT22;6550;48.650;8.774;2023-09-19T14:44:55;24.10;90.90
12971;DHT22;6550;48.650;8.774;2023-09-19T14:47:22;24.20;90.40
12971;DHT22;6550;48.650;8.774;2023-09-19T14:49:50;24.20;89.40
12971;DHT22;6550;48.650;8.774;2023-09-19T14:52:19;24.20;89.80
12971;DHT22;6550;48.650;8.774;2023-09-19T14:54:46;24.30;88.20
12971;DHT22;6550;48.650;8.774;2023-09-19T14:57:13;24.20;86.60
12971;DHT22;6550;48.650;8.774;2023-09-19T14:59:41;24.20;90.00
12971;DHT22;6550;48.650;8.774;2023-09-19T15:02:10;24.20;88.40
12971;DHT22;6550;48.650;8.774;2023-09-19T15:04:37;24.30;89.50
12971;DHT22;6550;48.650;8.774;2023-09-19T15:07:08;24.30;90.30
12971;DHT22;6550;48.650;8.774;2023-09-19T15:09:34;24.20;90.20
12971;DHT22;6550;48.650;8.774;2023-09-19T15:12:02;24.30;90.50
12971;DHT22;6550;48.650;8.774;2023-09-19T15:14:29;24.20;90.80
12971;DHT22;6550;48.650;8.774;2023-09-19T15:16:56;24.20;90.60
12971;DHT22;6550;48.650;8.774;2023-09-19T15:19:25;24.30;90.70
12971;DHT22;6550;48.650;8.774;2023-09-19T15:21:54;24.30;90.60
12971;DHT22;6550;48.650;8.774;2023-09-19T15:24:21;24.30;90.70
12971;DHT22;6550;48.650;8.774;2023-09-19T15:26:50;24.30;89.80
12971;DHT22;6550;48.650;8.774;2023-09-19T15:29:17;24.30;89.30
12971;DHT22;6550;48.650;8.774;2023-09-19T15:31:46;24.20;88.00
12971;DHT22;6550;48.650;8.774;2023-09-19T15:34:13;24.20;88.20
12971;DHT22;6550;48.650;8.774;2023-09-19T15:36:42;24.10;88.30
12971;DHT22;6550;48.650;8.774;2023-09-19T15:39:12;24.20;88.40
12971;DHT22;6550;48.650;8.774;2023-09-19T15:41:45;24.10;87.60
12971;DHT22;6550;48.650;8.774;2023-09-19T15:44:16;24.10;89.70
12971;DHT22;6550;48.650;8.774;2023-09-19T15:46:46;24.10;87.60
12971;DHT22;6550;48.650;8.774;2023-09-19T15:49:15;24.00;87.60
12971;DHT22;6550;48.650;8.774;2023-09-19T15:54:13;24.00;87.80
12971;DHT22;6550;48.650;8.774;2023-09-19T15:56:44;23.90;88.50
12971;DHT22;6550;48.650;8.774;2023-09-19T15:59:12;23.90;90.60
12971;DHT22;6550;48.650;8.774;2023-09-19T16:01:43;23.80;89.80
12971;DHT22;6550;48.650;8.774;2023-09-19T16:04:10;25.20;90.70
12971;DHT22;6550;48.650;8.774;2023-09-19T16:06:42;23.70;91.20
12971;DHT22;6550;48.650;8.774;2023-09-19T16:09:09;23.70;92.50
12971;DHT22;6550;48.650;8.774;2023-09-19T16:11:39;23.70;92.50
12971;DHT22;6550;48.650;8.774;2023-09-19T16:14:10;23.80;92.50
12971;DHT22;6550;48.650;8.774;2023-09-19T16:16:40;23.80;92.40
12971;DHT22;6550;48.650;8.774;2023-09-19T16:19:06;23.70;92.30
12971;DHT22;6550;48.650;8.774;2023-09-19T16:21:40;23.70;92.80
12971;DHT22;6550;48.650;8.774;2023-09-19T16:24:07;23.70;92.00
12971;DHT22;6550;48.650;8.774;2023-09-19T16:26:36;23.70;92.10
12971;DHT22;6550;48.650;8.774;2023-09-19T16:29:04;23.50;92.60
12971;DHT22;6550;48.650;8.774;2023-09-19T16:31:31;23.60;92.10
12971;DHT22;6550;48.650;8.774;2023-09-19T16:34:02;23.50;92.60
12971;DHT22;6550;48.650;8.774;2023-09-19T16:41:26;23.20;92.50
12971;DHT22;6550;48.650;8.774;2023-09-19T16:43:56;23.30;92.80
12971;DHT22;6550;48.650;8.774;2023-09-19T16:46:25;23.20;93.20
12971;DHT22;6550;48.650;8.774;2023-09-19T16:48:54;22.90;93.10
12971;DHT22;6550;48.650;8.774;2023-09-19T16:51:32;22.80;93.40
12971;DHT22;6550;48.650;8.774;2023-09-19T16:54:02;22.70;93.90
12971;DHT22;6550;48.650;8.774;2023-09-19T16:56:29;22.60;94.30
12971;DHT22;6550;48.650;8.774;2023-09-19T16:58:59;22.60;94.50
12971;DHT22;6550;48.650;8.774;2023-09-19T17:01:30;22.40;94.80
12971;DHT22;6550;48.650;8.774;2023-09-19T17:03:59;22.30;95.40
12971;DHT22;6550;48.650;8.774;2023-09-19T17:06:30;22.20;95.90
12971;DHT22;6550;48.650;8.774;2023-09-19T17:08:56;22.10;96.20
12971;DHT22;6550;48.650;8.774;2023-09-19T17:11:24;21.70;96.50
12971;DHT22;6550;48.650;8.774;2023-09-19T17:13:51;21.80;97.10
12971;DHT22;6550;48.650;8.774;2023-09-19T17:18:54;21.60;97.60
12971;DHT22;6550;48.650;8.774;2023-09-19T17:21:27;21.50;98.20
12971;DHT22;6550;48.650;8.774;2023-09-19T17:23:56;21.40;98.40
12971;DHT22;6550;48.650;8.774;2023-09-19T17:26:28;21.20;98.80
12971;DHT22;6550;48.650;8.774;2023-09-19T17:29:00;21.20;98.90
12971;DHT22;6550;48.650;8.774;2023-09-19T17:31:28;21.10;99.10
12971;DHT22;6550;48.650;8.774;2023-09-19T17:33:58;21.10;99.30
12971;DHT22;6550;48.650;8.774;2023-09-19T17:36:26;21.00;99.50
12971;DHT22;6550;48.650;8.774;2023-09-19T17:38:55;20.70;99.80